createdAt,value
2018-09-06T00:01:43.557Z,17.80
2018-09-06T00:04:11.207Z,17.80
2018-09-06T00:09:07.677Z,17.80
2018-09-06T00:16:30.787Z,17.70
2018-09-06T00:21:25.996Z,17.60
2018-09-06T00:23:53.627Z,17.60
2018-09-06T00:26:21.291Z,17.60
2018-09-06T00:28:48.920Z,17.50
2018-09-06T00:38:39.159Z,17.50
2018-09-06T00:41:06.841Z,17.40
2018-09-06T00:46:02.011Z,17.40
2018-09-06T00:50:57.295Z,17.40
2018-09-06T00:53:24.979Z,17.40
2018-09-06T01:03:15.251Z,17.40
2018-09-06T01:10:38.001Z,17.40
2018-09-06T01:15:33.164Z,17.40
2018-09-06T01:20:28.303Z,17.40
2018-09-06T01:22:55.908Z,17.30
2018-09-06T01:27:51.130Z,17.30
2018-09-06T01:30:18.735Z,17.30
2018-09-06T01:32:46.349Z,17.30
2018-09-06T01:35:14.034Z,17.30
2018-09-06T01:52:26.904Z,17.10
2018-09-06T01:59:49.578Z,17.10
2018-09-06T02:04:45.350Z,17.10
2018-09-06T02:09:40.548Z,17.00
2018-09-06T02:17:03.518Z,17.00
2018-09-06T02:24:26.260Z,17.00
2018-09-06T02:29:21.483Z,17.00
2018-09-06T02:36:44.198Z,17.00
2018-09-06T02:41:39.473Z,17.00
2018-09-06T02:49:02.450Z,16.90
2018-09-06T03:01:20.265Z,16.90
2018-09-06T03:08:43.074Z,16.90
2018-09-06T03:11:20.570Z,16.80
2018-09-06T03:16:16.067Z,16.80
2018-09-06T03:31:06.942Z,16.80
2018-09-06T03:33:34.559Z,16.90
2018-09-06T03:36:02.273Z,16.80
2018-09-06T03:38:29.830Z,16.80
2018-09-06T03:45:52.688Z,16.80
2018-09-06T03:48:20.358Z,16.80
2018-09-06T03:50:47.991Z,16.80
2018-09-06T03:53:15.630Z,16.80
2018-09-06T03:55:43.226Z,16.80
2018-09-06T03:58:10.888Z,16.90
2018-09-06T04:00:38.486Z,16.80
2018-09-06T04:03:06.162Z,16.80
2018-09-06T04:05:33.750Z,16.80
2018-09-06T04:15:24.009Z,16.70
2018-09-06T04:17:51.654Z,16.70
2018-09-06T04:20:19.319Z,16.60
2018-09-06T04:22:49.291Z,16.60
2018-09-06T04:32:39.595Z,16.40
2018-09-06T04:40:02.330Z,16.50
2018-09-06T04:42:30.186Z,16.50
2018-09-06T04:47:25.424Z,16.60
2018-09-06T04:49:53.039Z,16.70
2018-09-06T04:52:20.638Z,16.70
2018-09-06T04:59:43.618Z,17.00
2018-09-06T05:04:39.084Z,17.80
2018-09-06T05:07:06.845Z,18.50
2018-09-06T05:09:34.925Z,19.10
2018-09-06T05:12:02.571Z,19.60
2018-09-06T05:14:30.302Z,20.10
2018-09-06T05:16:57.974Z,20.10
2018-09-06T05:19:25.701Z,20.70
2018-09-06T05:21:53.474Z,21.70
2018-09-06T05:24:21.061Z,21.80
2018-09-06T05:26:48.724Z,22.10
2018-09-06T05:29:16.375Z,21.90
2018-09-06T05:31:43.999Z,21.40
2018-09-06T05:34:11.723Z,21.30
2018-09-06T05:36:39.426Z,21.20
2018-09-06T05:39:08.674Z,21.60
2018-09-06T05:41:36.363Z,21.60
2018-09-06T05:44:04.036Z,22.20
2018-09-06T05:46:31.726Z,23.20
2018-09-06T05:48:59.399Z,24.00
2018-09-06T05:51:27.060Z,25.20
2018-09-06T05:53:54.686Z,25.90
2018-09-06T05:56:22.310Z,25.20
2018-09-06T05:58:49.938Z,24.40
2018-09-06T06:01:17.593Z,23.60
2018-09-06T06:03:45.227Z,23.20
2018-09-06T06:06:12.825Z,23.20
2018-09-06T06:08:43.286Z,22.90
2018-09-06T06:11:10.911Z,22.20
2018-09-06T06:13:38.810Z,22.20
2018-09-06T06:16:06.605Z,22.80
2018-09-06T06:18:34.379Z,23.50
2018-09-06T06:21:02.160Z,24.00
2018-09-06T06:23:29.840Z,24.80
2018-09-06T06:25:57.541Z,27.50
2018-09-06T06:28:25.167Z,27.80
2018-09-06T06:30:52.834Z,29.50
2018-09-06T06:33:20.486Z,30.30
2018-09-06T06:35:48.195Z,31.00
2018-09-06T06:38:15.806Z,32.00
2018-09-06T06:40:44.359Z,33.60
2018-09-06T06:43:12.004Z,34.50
2018-09-06T06:45:39.675Z,35.60
2018-09-06T06:48:07.405Z,36.30
2018-09-06T06:50:35.308Z,36.80
2018-09-06T06:53:02.979Z,37.10
2018-09-06T06:55:30.701Z,38.20
2018-09-06T06:57:58.338Z,37.80
2018-09-06T07:00:26.035Z,38.80
2018-09-06T07:02:54.656Z,39.40
2018-09-06T07:05:22.287Z,38.70
2018-09-06T07:07:50.147Z,36.20
2018-09-06T07:10:17.865Z,38.20
2018-09-06T07:12:45.575Z,39.50
2018-09-06T07:15:13.251Z,41.30
2018-09-06T07:17:40.920Z,41.20
2018-09-06T07:20:08.689Z,39.00
2018-09-06T07:22:36.274Z,37.90
2018-09-06T07:25:03.984Z,38.90
2018-09-06T07:27:31.628Z,39.60
2018-09-06T07:29:59.999Z,39.70
2018-09-06T07:32:27.648Z,38.00
2018-09-06T07:34:55.294Z,38.70
2018-09-06T07:37:22.966Z,40.70
2018-09-06T07:39:50.635Z,40.90
2018-09-06T07:42:18.310Z,41.00
2018-09-06T07:44:46.083Z,41.10
2018-09-06T07:47:13.697Z,40.50
2018-09-06T07:49:41.334Z,41.40
2018-09-06T07:52:09.051Z,41.40
2018-09-06T07:54:36.676Z,41.60
2018-09-06T07:57:04.452Z,41.00
2018-09-06T07:59:32.156Z,39.10
2018-09-06T08:01:59.866Z,39.30
2018-09-06T08:26:35.693Z,29.20
2018-09-06T08:36:25.956Z,27.50
2018-09-06T08:41:21.130Z,27.50
2018-09-06T08:48:43.914Z,26.70
2018-09-06T08:53:39.191Z,26.80
2018-09-06T08:56:07.232Z,27.10
2018-09-06T09:01:08.213Z,27.40
2018-09-06T09:03:35.985Z,27.30
2018-09-06T09:08:31.352Z,27.30
2018-09-06T09:20:49.236Z,27.80
2018-09-06T09:23:16.907Z,27.80
2018-09-06T09:28:12.068Z,27.60
2018-09-06T09:42:57.593Z,28.00
2018-09-06T09:45:25.248Z,27.90
2018-09-06T10:02:43.100Z,27.80
2018-09-06T10:10:17.055Z,27.40
2018-09-06T10:29:57.998Z,28.30
2018-09-06T10:39:48.722Z,28.60
2018-09-06T10:42:16.350Z,28.50
2018-09-06T10:47:11.578Z,28.20
2018-09-06T10:57:02.918Z,28.10
2018-09-06T11:01:58.165Z,27.40
2018-09-06T11:11:48.650Z,26.30
2018-09-06T11:19:11.378Z,25.80
2018-09-06T11:24:06.515Z,25.40
2018-09-06T11:31:29.250Z,25.50
2018-09-06T11:36:24.462Z,24.90
2018-09-06T11:48:42.135Z,24.50
2018-09-06T11:53:37.455Z,24.10
2018-09-06T11:56:05.427Z,23.80
2018-09-06T11:58:33.062Z,23.90
2018-09-06T12:01:00.697Z,24.50
2018-09-06T12:03:28.370Z,24.80
2018-09-06T12:05:56.032Z,25.00
2018-09-06T12:08:23.677Z,25.20
2018-09-06T12:10:51.263Z,25.20
2018-09-06T12:13:18.899Z,25.20
2018-09-06T12:15:46.623Z,25.20
2018-09-06T12:18:14.341Z,25.10
2018-09-06T12:20:41.976Z,24.80
2018-09-06T12:23:09.633Z,24.90
2018-09-06T12:25:37.361Z,25.00
2018-09-06T12:28:05.051Z,25.20
2018-09-06T12:30:32.738Z,25.40
2018-09-06T12:33:00.378Z,25.50
2018-09-06T12:35:28.035Z,25.50
2018-09-06T12:37:55.690Z,25.50
2018-09-06T12:40:23.334Z,25.50
2018-09-06T12:42:51.086Z,25.70
2018-09-06T12:45:18.755Z,25.80
2018-09-06T12:47:46.425Z,25.70
2018-09-06T12:50:14.010Z,25.80
2018-09-06T12:52:41.650Z,25.80
2018-09-06T12:55:09.453Z,25.80
2018-09-06T12:57:37.202Z,25.90
2018-09-06T13:00:05.074Z,25.70
2018-09-06T13:02:32.861Z,25.70
2018-09-06T13:05:00.929Z,25.70
2018-09-06T13:07:28.566Z,25.80
2018-09-06T13:09:56.198Z,25.80
2018-09-06T13:12:23.902Z,25.80
2018-09-06T13:14:51.727Z,25.80
2018-09-06T13:17:19.487Z,25.90
2018-09-06T13:19:47.225Z,25.90
2018-09-06T13:22:14.974Z,25.80
2018-09-06T13:24:42.613Z,25.70
2018-09-06T13:27:10.277Z,25.70
2018-09-06T13:29:37.902Z,25.50
2018-09-06T13:32:05.545Z,25.60
2018-09-06T13:34:33.179Z,25.60
2018-09-06T13:37:00.806Z,25.60
2018-09-06T13:39:28.488Z,25.70
2018-09-06T13:41:56.210Z,25.70
2018-09-06T13:44:23.835Z,25.70
2018-09-06T13:46:51.512Z,25.70
2018-09-06T13:49:19.170Z,25.60
2018-09-06T13:51:46.779Z,25.60
2018-09-06T13:54:14.390Z,25.50
2018-09-06T13:56:42.076Z,25.50
2018-09-06T13:59:09.768Z,25.50
2018-09-06T14:01:37.395Z,25.40
2018-09-06T14:04:05.068Z,25.30
2018-09-06T14:06:32.760Z,25.20
2018-09-06T14:09:00.406Z,25.20
2018-09-06T14:11:28.012Z,25.10
2018-09-06T14:13:55.614Z,25.10
2018-09-06T14:16:23.334Z,25.10
2018-09-06T14:18:50.967Z,25.00
2018-09-06T14:21:18.590Z,25.00
2018-09-06T14:23:46.221Z,25.00
2018-09-06T14:26:13.852Z,25.10
2018-09-06T14:28:41.485Z,25.10
2018-09-06T14:31:09.099Z,25.10
2018-09-06T14:33:36.722Z,25.10
2018-09-06T14:36:04.406Z,25.00
2018-09-06T14:38:32.066Z,25.10
2018-09-06T14:40:59.655Z,24.90
2018-09-06T14:43:27.278Z,24.90
2018-09-06T14:45:54.894Z,24.80
2018-09-06T14:48:22.526Z,24.80
2018-09-06T14:50:50.188Z,24.70
2018-09-06T14:53:17.862Z,24.60
2018-09-06T14:55:45.475Z,24.50
2018-09-06T14:58:13.090Z,24.40
2018-09-06T15:00:40.707Z,24.20
2018-09-06T15:03:08.358Z,24.10
2018-09-06T15:05:35.958Z,24.00
2018-09-06T15:08:03.712Z,24.00
2018-09-06T15:10:31.327Z,24.00
2018-09-06T15:12:58.968Z,23.90
2018-09-06T15:15:26.663Z,23.90
2018-09-06T15:17:54.267Z,23.70
2018-09-06T15:20:21.983Z,23.70
2018-09-06T15:22:49.606Z,23.60
2018-09-06T15:25:17.245Z,23.50
2018-09-06T15:27:45.015Z,23.40
2018-09-06T15:30:12.619Z,23.20
2018-09-06T15:32:40.323Z,23.10
2018-09-06T15:35:07.965Z,23.10
2018-09-06T15:37:35.566Z,23.10
2018-09-06T15:40:03.270Z,22.90
2018-09-06T15:42:30.958Z,22.80
2018-09-06T15:44:58.601Z,22.70
2018-09-06T15:47:26.920Z,22.60
2018-09-06T15:49:54.633Z,22.40
2018-09-06T15:52:22.259Z,22.30
2018-09-06T15:54:49.891Z,22.10
2018-09-06T15:57:17.501Z,22.10
2018-09-06T15:59:45.154Z,22.10
2018-09-06T16:02:12.772Z,21.80
2018-09-06T16:04:40.387Z,21.50
2018-09-06T16:07:08.004Z,21.30
2018-09-06T16:09:35.645Z,21.00
2018-09-06T16:12:03.262Z,20.80
2018-09-06T16:14:30.881Z,21.00
2018-09-06T16:16:58.495Z,21.00
2018-09-06T16:19:26.128Z,21.10
2018-09-06T16:21:53.762Z,21.20
2018-09-06T16:24:21.404Z,21.30
2018-09-06T16:26:49.087Z,21.40
2018-09-06T16:29:16.730Z,21.30
2018-09-06T16:31:51.083Z,21.00
2018-09-06T16:34:18.779Z,20.70
2018-09-06T16:36:46.409Z,20.60
2018-09-06T16:39:14.060Z,20.40
2018-09-06T16:41:41.862Z,20.10
2018-09-06T16:44:09.608Z,20.00
2018-09-06T16:46:37.383Z,19.90
2018-09-06T16:49:05.273Z,19.70
2018-09-06T16:51:32.939Z,19.70
2018-09-06T16:54:00.621Z,19.60
2018-09-06T16:56:28.268Z,19.50
2018-09-06T16:58:55.954Z,19.40
2018-09-06T17:01:23.588Z,19.60
2018-09-06T17:03:52.037Z,19.90
2018-09-06T17:06:19.735Z,20.10
2018-09-06T17:08:47.362Z,20.30
2018-09-06T17:11:15.055Z,20.00
2018-09-06T17:13:42.723Z,19.90
2018-09-06T17:16:10.354Z,19.80
2018-09-06T17:18:38.038Z,20.10
2018-09-06T17:21:05.810Z,20.00
2018-09-06T17:23:33.459Z,20.00
2018-09-06T17:26:01.070Z,20.10
2018-09-06T17:28:28.796Z,20.30
2018-09-06T17:30:56.424Z,20.30
2018-09-06T17:33:24.175Z,20.30
2018-09-06T17:35:51.766Z,20.50
2018-09-06T17:38:19.381Z,20.60
2018-09-06T17:40:47.008Z,20.50
2018-09-06T17:43:14.602Z,20.10
2018-09-06T17:45:42.244Z,19.80
2018-09-06T17:48:09.998Z,20.00
2018-09-06T17:50:37.653Z,20.10
2018-09-06T17:53:05.720Z,19.90
2018-09-06T17:55:33.477Z,19.80
2018-09-06T17:58:01.092Z,19.60
2018-09-06T18:00:28.687Z,19.50
2018-09-06T18:02:56.329Z,19.40
2018-09-06T18:05:24.123Z,19.30
2018-09-06T18:07:51.809Z,19.10
2018-09-06T18:10:19.447Z,19.00
2018-09-06T18:12:47.222Z,19.00
2018-09-06T18:15:15.047Z,18.90
2018-09-06T18:17:43.572Z,18.80
2018-09-06T18:20:11.330Z,18.70
2018-09-06T18:22:38.979Z,18.60
2018-09-06T18:25:06.715Z,18.60
2018-09-06T18:27:34.470Z,18.70
2018-09-06T18:30:02.196Z,18.70
2018-09-06T18:32:29.915Z,18.60
2018-09-06T18:34:57.583Z,18.70
2018-09-06T18:37:25.410Z,18.60
2018-09-06T18:39:53.006Z,18.60
2018-09-06T18:42:20.809Z,18.60
2018-09-06T18:44:48.562Z,18.60
2018-09-06T18:47:16.271Z,18.70
2018-09-06T18:49:44.145Z,18.80
2018-09-06T18:52:11.740Z,18.80
2018-09-06T18:54:39.369Z,19.00
2018-09-06T18:57:06.993Z,19.20
2018-09-06T18:59:34.645Z,19.20
2018-09-06T19:02:02.492Z,19.20
2018-09-06T19:04:30.122Z,19.30
2018-09-06T19:06:57.768Z,19.40
2018-09-06T19:09:25.439Z,19.60
2018-09-06T19:11:53.066Z,19.80
2018-09-06T19:14:20.724Z,19.60
2018-09-06T19:16:48.388Z,19.70
2018-09-06T19:19:15.981Z,19.40
2018-09-06T19:21:43.671Z,19.40
2018-09-06T19:24:11.335Z,19.30
2018-09-06T19:26:39.030Z,19.20
2018-09-06T19:29:06.662Z,19.00
2018-09-06T19:31:34.323Z,18.80
2018-09-06T19:34:01.997Z,18.70
2018-09-06T19:36:29.651Z,18.60
2018-09-06T19:38:57.287Z,18.60
2018-09-06T19:41:24.870Z,18.40
2018-09-06T19:43:52.582Z,18.40
2018-09-06T19:46:20.297Z,18.40
2018-09-06T19:48:47.970Z,18.50
2018-09-06T19:51:15.624Z,18.60
2018-09-06T19:53:43.215Z,18.60
2018-09-06T19:56:10.911Z,18.60
2018-09-06T19:58:38.559Z,18.70
2018-09-06T20:01:06.203Z,18.60
2018-09-06T20:03:33.815Z,18.70
2018-09-06T20:06:01.424Z,18.70
2018-09-06T20:08:29.151Z,18.70
2018-09-06T20:10:56.719Z,18.70
2018-09-06T20:13:24.402Z,18.70
2018-09-06T20:15:52.051Z,18.60
2018-09-06T20:18:19.846Z,18.60
2018-09-06T20:20:47.465Z,18.50
2018-09-06T20:23:15.129Z,18.50
2018-09-06T20:25:42.794Z,18.60
2018-09-06T20:28:10.628Z,18.50
2018-09-06T20:30:38.358Z,18.50
2018-09-06T20:33:05.978Z,18.50
2018-09-06T20:35:33.602Z,18.50
2018-09-06T20:38:01.249Z,18.50
2018-09-06T20:40:29.004Z,18.50
2018-09-06T20:42:56.641Z,18.50
2018-09-06T20:45:24.528Z,18.50
2018-09-06T20:47:52.188Z,18.50
2018-09-06T20:50:19.913Z,18.50
2018-09-06T20:52:47.543Z,18.50
2018-09-06T20:55:15.248Z,18.50
2018-09-06T20:57:42.874Z,18.50
2018-09-06T21:00:10.578Z,18.40
2018-09-06T21:02:39.245Z,18.40
2018-09-06T21:05:08.143Z,18.40
2018-09-06T21:07:35.803Z,18.40
2018-09-06T21:10:03.974Z,18.40
2018-09-06T21:12:31.611Z,18.40
2018-09-06T21:14:59.432Z,18.40
2018-09-06T21:17:27.122Z,18.40
2018-09-06T21:19:54.752Z,18.30
2018-09-06T21:22:22.392Z,18.30
2018-09-06T21:24:50.029Z,18.30
2018-09-06T21:27:17.687Z,18.30
2018-09-06T21:29:45.340Z,18.30
2018-09-06T21:32:13.181Z,18.30
2018-09-06T21:34:40.948Z,18.20
2018-09-06T21:37:08.570Z,18.10
2018-09-06T21:39:36.202Z,18.20
2018-09-06T21:42:03.837Z,18.10
2018-09-06T21:44:31.483Z,18.10
2018-09-06T21:46:59.114Z,18.10
2018-09-06T21:49:26.792Z,18.20
2018-09-06T21:51:54.477Z,18.10
2018-09-06T21:54:22.127Z,18.10
2018-09-06T21:56:49.758Z,18.10
2018-09-06T21:59:17.390Z,18.10
2018-09-06T22:01:45.063Z,18.10
2018-09-06T22:04:12.725Z,18.00
2018-09-06T22:06:40.374Z,18.00
2018-09-06T22:09:09.715Z,18.00
2018-09-06T22:11:37.355Z,18.00
2018-09-06T22:14:05.077Z,18.00
2018-09-06T22:16:32.770Z,18.00
2018-09-06T22:19:00.398Z,18.00
2018-09-06T22:21:28.080Z,18.00
2018-09-06T22:23:55.763Z,17.90
2018-09-06T22:26:23.463Z,17.90
2018-09-06T22:28:51.248Z,17.90
2018-09-06T22:31:18.906Z,17.80
2018-09-06T22:33:46.569Z,17.90
2018-09-06T22:36:14.224Z,17.90
2018-09-06T22:38:41.924Z,17.90
2018-09-06T22:41:09.656Z,18.00
2018-09-06T22:43:37.459Z,17.90
2018-09-06T22:46:05.512Z,17.80
2018-09-06T22:48:33.235Z,17.80
2018-09-06T22:51:01.560Z,17.80
2018-09-06T22:53:29.471Z,17.80
2018-09-06T22:55:57.269Z,17.70
2018-09-06T22:58:24.970Z,17.70
2018-09-06T23:00:52.678Z,17.80
2018-09-06T23:03:26.153Z,17.70
2018-09-06T23:05:53.790Z,17.80
2018-09-06T23:08:21.494Z,17.80
2018-09-06T23:10:49.194Z,17.80
2018-09-06T23:13:16.838Z,17.70
2018-09-06T23:15:44.574Z,17.70
2018-09-06T23:18:12.237Z,17.70
2018-09-06T23:20:39.896Z,17.70
2018-09-06T23:23:07.534Z,17.60
2018-09-06T23:25:35.287Z,17.60
2018-09-06T23:28:02.902Z,17.60
2018-09-06T23:30:30.547Z,17.60
2018-09-06T23:32:58.227Z,17.60
2018-09-06T23:35:25.898Z,17.60
2018-09-06T23:37:53.514Z,17.60
2018-09-06T23:40:21.139Z,17.60
2018-09-06T23:42:48.790Z,17.60
2018-09-06T23:45:16.444Z,17.60
2018-09-06T23:47:44.119Z,17.60
2018-09-06T23:50:11.773Z,17.60
2018-09-06T23:52:39.411Z,17.70
2018-09-06T23:55:07.092Z,17.60
2018-09-06T23:57:34.734Z,17.60
